Time;durP1;ratioP1;P1;durP2;ratioP2;P2;SDS_P1;SDS_P2;PMS_P1;PMS_P2;Temp;Humidity;BMP_temperature;BMP_pressure;BME280_temperature;BME280_humidity;BME280_pressure;Samples;Min_cycle;Max_cycle;Signal;HPM_P1;HPM_P2
2021/11/11 00:00:49;;;;;;;4.97;3.20;;;;;;;6.65;43.56;95302.63;5024922;28;20080;-75
2021/11/11 00:03:15;;;;;;;7.10;4.68;;;;;;;6.24;43.22;95242.56;5019610;28;20037;-75
2021/11/11 00:05:41;;;;;;;5.72;4.15;;;;;;;5.46;44.03;95292.13;5015591;28;20115;-75
2021/11/11 00:08:06;;;;;;;6.60;4.28;;;;;;;4.35;46.32;95281.78;5019264;28;20657;-77
2021/11/11 00:10:32;;;;;;;5.43;3.80;;;;;;;3.36;48.60;95284.66;5031346;28;20064;-76
2021/11/11 00:12:59;;;;;;;5.90;3.50;;;;;;;3.67;49.06;95301.06;5019390;28;20112;-76
2021/11/11 00:15:25;;;;;;;7.57;5.07;;;;;;;3.20;49.91;95288.00;5018132;28;20022;-78
2021/11/11 00:17:51;;;;;;;6.82;4.63;;;;;;;3.41;49.76;95297.09;5027875;28;20037;-77
2021/11/11 00:20:19;;;;;;;6.70;4.78;;;;;;;4.32;48.79;95293.56;5022014;28;20029;-75
2021/11/11 00:22:46;;;;;;;6.10;3.47;;;;;;;4.79;47.55;95291.47;5016741;28;20044;-76
2021/11/11 00:25:13;;;;;;;7.72;4.18;;;;;;;4.84;47.42;95269.63;5011784;28;20024;-77
2021/11/11 00:27:39;;;;;;;6.95;3.38;;;;;;;5.30;46.66;95278.97;5025710;28;20018;-77
2021/11/11 00:30:10;;;;;;;5.68;3.72;;;;;;;5.39;46.35;95280.13;5016353;28;20334;-76
2021/11/11 00:32:36;;;;;;;9.85;4.30;;;;;;;5.56;45.91;95276.41;5022788;28;20029;-77
2021/11/11 00:35:03;;;;;;;10.00;5.03;;;;;;;5.86;45.41;95289.19;5018605;28;20111;-76
2021/11/11 00:37:29;;;;;;;6.38;4.00;;;;;;;5.85;44.96;95268.28;5016924;28;20164;-74
2021/11/11 00:39:55;;;;;;;5.72;4.20;;;;;;;6.10;44.92;95288.88;5023560;28;20522;-75
2021/11/11 00:42:20;;;;;;;6.50;3.42;;;;;;;6.09;44.58;95266.16;5017471;28;20114;-77
2021/11/11 00:44:48;;;;;;;6.43;4.32;;;;;;;6.17;44.46;95271.81;5026276;28;20041;-77
2021/11/11 00:47:16;;;;;;;7.13;4.15;;;;;;;6.19;44.43;95276.84;5022549;28;20053;-77
2021/11/11 00:49:42;;;;;;;8.50;5.25;;;;;;;6.39;43.77;95277.84;5028768;28;20033;-77
2021/11/11 00:52:08;;;;;;;4.78;3.70;;;;;;;6.31;44.31;95280.16;5021128;28;20045;-76
2021/11/11 00:54:35;;;;;;;6.68;3.97;;;;;;;6.26;44.50;95277.47;5023204;28;20108;-77
2021/11/11 00:57:00;;;;;;;4.35;3.65;;;;;;;6.20;44.81;95279.25;5019284;28;20197;-75
2021/11/11 00:59:26;;;;;;;7.22;3.78;;;;;;;6.20;44.52;95267.88;5024970;28;20077;-76
2021/11/11 01:01:51;;;;;;;5.97;4.25;;;;;;;6.19;44.54;95255.72;5016369;28;20121;-77
2021/11/11 01:04:17;;;;;;;7.35;4.22;;;;;;;6.34;44.43;95277.81;5019990;28;20049;-76
2021/11/11 01:06:42;;;;;;;4.63;3.63;;;;;;;6.20;44.39;95252.84;5013694;28;20037;-76
2021/11/11 01:09:08;;;;;;;8.57;5.30;;;;;;;6.26;44.34;95262.38;5016412;28;20162;-76
2021/11/11 01:11:33;;;;;;;5.05;3.42;;;;;;;6.39;44.47;95274.41;5014207;28;20049;-77
2021/11/11 01:13:59;;;;;;;7.60;3.95;;;;;;;6.27;43.96;95255.25;5027233;28;20140;-75
2021/11/11 01:16:24;;;;;;;5.53;3.63;;;;;;;5.87;43.96;95218.69;5021444;28;20039;-78
2021/11/11 01:18:50;;;;;;;6.03;4.25;;;;;;;6.39;43.83;95266.47;5009550;28;20751;-76
2021/11/11 01:21:15;;;;;;;4.68;3.58;;;;;;;6.36;44.02;95265.13;5021537;28;20033;-76
2021/11/11 01:23:41;;;;;;;4.78;4.10;;;;;;;6.42;43.68;95255.38;5024198;28;20050;-77
2021/11/11 01:26:09;;;;;;;5.95;2.78;;;;;;;6.43;43.98;95262.28;5007238;28;20042;-71
2021/11/11 01:28:36;;;;;;;5.80;3.90;;;;;;;6.48;44.19;95254.38;5020335;28;20045;-76
2021/11/11 01:31:02;;;;;;;5.90;4.03;;;;;;;6.34;43.90;95248.72;5015456;28;20029;-79
2021/11/11 01:33:28;;;;;;;7.05;4.60;;;;;;;6.53;43.53;95235.94;5020589;28;20089;-75
2021/11/11 01:35:53;;;;;;;8.45;4.07;;;;;;;6.41;43.55;95233.44;5017886;28;20033;-76
2021/11/11 01:38:19;;;;;;;7.40;4.07;;;;;;;6.39;43.93;95247.97;5005374;28;20102;-77
2021/11/11 01:40:47;;;;;;;5.75;4.00;;;;;;;6.66;43.46;95261.94;5017240;28;20071;-74
2021/11/11 01:43:12;;;;;;;7.18;4.55;;;;;;;6.41;43.93;95261.72;5036186;28;20552;-75
2021/11/11 01:45:43;;;;;;;5.68;3.50;;;;;;;6.33;44.12;95249.78;5019988;28;20057;-73
2021/11/11 01:48:14;;;;;;;7.97;4.40;;;;;;;6.39;43.79;95229.47;5014838;28;20053;-76
2021/11/11 01:50:42;;;;;;;5.70;3.45;;;;;;;6.36;43.87;95246.63;5022450;28;20049;-77
2021/11/11 01:53:09;;;;;;;5.28;3.92;;;;;;;6.36;44.04;95251.13;5013546;28;20068;-77
2021/11/11 01:55:36;;;;;;;5.90;4.47;;;;;;;6.14;44.21;95223.94;5024204;28;20045;-77
2021/11/11 01:58:02;;;;;;;7.63;3.72;;;;;;;6.22;44.12;95239.34;5018189;28;20048;-78
2021/11/11 02:00:31;;;;;;;6.65;3.85;;;;;;;6.33;44.08;95249.78;5016458;28;20018;-76
2021/11/11 02:03:02;;;;;;;5.72;3.92;;;;;;;6.22;44.15;95224.31;5037397;28;20041;-74
2021/11/11 02:05:29;;;;;;;4.57;3.35;;;;;;;6.32;44.33;95242.09;5015576;28;20046;-75
2021/11/11 02:07:55;;;;;;;5.22;3.80;;;;;;;6.35;44.30;95238.97;5022910;28;20045;-76
2021/11/11 02:10:21;;;;;;;5.70;4.07;;;;;;;6.42;43.79;95234.25;5016845;28;20045;-75
2021/11/11 02:12:47;;;;;;;6.72;4.00;;;;;;;6.41;43.87;95237.94;5022522;28;20468;-75
2021/11/11 02:15:14;;;;;;;5.88;4.00;;;;;;;6.38;43.94;95241.88;5022079;28;20061;-75
2021/11/11 02:17:41;;;;;;;8.88;4.00;;;;;;;6.18;43.95;95211.84;5010190;28;20042;-77
2021/11/11 02:20:10;;;;;;;8.18;4.25;;;;;;;6.43;43.79;95234.00;5021702;28;21503;-76
2021/11/11 02:22:36;;;;;;;7.00;4.47;;;;;;;6.09;43.78;95186.91;5015626;28;20037;-77
2021/11/11 02:25:07;;;;;;;6.38;4.25;;;;;;;6.33;44.16;95233.91;5016695;28;20035;-77
2021/11/11 02:27:33;;;;;;;5.43;3.80;;;;;;;6.21;44.00;95219.28;5021223;28;20375;-76
2021/11/11 02:29:58;;;;;;;5.88;3.63;;;;;;;6.07;44.02;95196.94;5012655;28;20029;-73
2021/11/11 02:32:32;;;;;;;4.25;3.03;;;;;;;6.31;43.97;95233.38;5022155;28;20943;-75
2021/11/11 02:34:58;;;;;;;8.25;4.03;;;;;;;6.13;43.89;95203.84;5026263;28;20034;-76
2021/11/11 02:37:28;;;;;;;7.40;4.28;;;;;;;6.27;44.04;95234.91;5024030;28;20037;-77
2021/11/11 02:39:54;;;;;;;7.50;4.28;;;;;;;6.22;43.92;95218.22;5020640;28;20055;-77
2021/11/11 02:42:19;;;;;;;7.40;4.50;;;;;;;6.11;44.12;95200.69;5010542;28;20084;-76
2021/11/11 02:44:45;;;;;;;6.47;3.95;;;;;;;6.16;43.86;95214.75;5025158;28;20391;-75
2021/11/11 02:47:11;;;;;;;8.05;4.13;;;;;;;6.21;43.97;95221.94;5032482;28;20388;-76
2021/11/11 02:49:36;;;;;;;7.95;5.03;;;;;;;6.19;43.89;95230.09;5023641;28;20038;-77
2021/11/11 02:52:03;;;;;;;6.50;3.72;;;;;;;6.04;43.93;95202.72;5021738;28;20048;-75
2021/11/11 02:54:31;;;;;;;6.05;3.85;;;;;;;5.96;43.95;95194.22;5013997;28;20106;-74
2021/11/11 02:56:57;;;;;;;9.73;3.80;;;;;;;6.16;43.78;95227.16;5018048;28;20038;-78
2021/11/11 02:59:32;;;;;;;7.15;4.85;;;;;;;5.99;44.20;95206.91;5018763;28;20030;-76
2021/11/11 03:01:57;;;;;;;7.18;3.67;;;;;;;6.04;44.22;95200.06;5021659;28;20101;-75
2021/11/11 03:04:22;;;;;;;7.20;4.38;;;;;;;6.06;44.30;95203.28;5020334;28;20065;-76
2021/11/11 03:06:48;;;;;;;5.20;3.88;;;;;;;6.14;43.98;95210.72;5019346;28;20026;-74
2021/11/11 03:09:16;;;;;;;5.65;3.95;;;;;;;6.20;44.08;95217.69;5017748;28;20059;-74
2021/11/11 03:11:41;;;;;;;5.65;3.70;;;;;;;6.17;43.96;95212.88;5018758;28;20034;-76
2021/11/11 03:14:07;;;;;;;5.40;3.90;;;;;;;5.96;44.19;95181.00;5028242;28;20053;-77
2021/11/11 03:16:32;;;;;;;8.50;4.35;;;;;;;6.20;44.01;95213.22;5016185;28;20066;-76
2021/11/11 03:18:58;;;;;;;6.05;3.65;;;;;;;5.91;44.10;95167.75;5024806;28;20097;-76
2021/11/11 03:21:23;;;;;;;6.75;3.95;;;;;;;6.22;43.98;95213.72;5019288;28;20032;-77
2021/11/11 03:23:48;;;;;;;5.55;4.13;;;;;;;6.28;43.92;95212.72;5025582;28;20030;-77
2021/11/11 03:26:16;;;;;;;6.28;4.40;;;;;;;6.15;43.85;95199.13;5018116;28;20049;-77
2021/11/11 03:28:42;;;;;;;5.70;3.72;;;;;;;6.13;43.82;95191.44;5010950;28;20056;-78
2021/11/11 03:31:07;;;;;;;5.88;3.70;;;;;;;6.16;43.85;95187.53;5014448;28;20025;-79
2021/11/11 03:33:33;;;;;;;7.18;4.40;;;;;;;6.14;43.93;95195.69;5025014;28;20025;-76
2021/11/11 03:35:58;;;;;;;7.70;4.82;;;;;;;6.12;44.08;95207.53;5023748;28;20076;-75
2021/11/11 03:38:24;;;;;;;5.90;3.55;;;;;;;6.11;44.22;95204.13;5021414;28;20136;-76
2021/11/11 03:40:49;;;;;;;4.25;3.22;;;;;;;5.99;44.19;95195.53;5006838;28;20034;-76
2021/11/11 03:43:15;;;;;;;7.55;4.28;;;;;;;6.02;44.30;95176.53;5023057;28;20049;-74
2021/11/11 03:45:40;;;;;;;6.43;3.83;;;;;;;6.07;44.21;95196.94;5014234;28;20145;-76
2021/11/11 03:48:07;;;;;;;5.03;3.92;;;;;;;5.96;44.11;95175.72;5017056;28;20038;-76
2021/11/11 03:50:33;;;;;;;6.80;3.97;;;;;;;6.08;44.23;95187.94;5019382;28;20475;-78
2021/11/11 03:52:58;;;;;;;6.15;4.00;;;;;;;5.94;44.14;95177.81;5017302;28;20034;-73
2021/11/11 03:55:25;;;;;;;6.22;3.85;;;;;;;5.96;44.29;95169.66;5021369;28;20069;-78
2021/11/11 03:57:53;;;;;;;6.35;3.72;;;;;;;6.07;44.36;95181.09;5020197;28;20031;-75
2021/11/11 04:00:19;;;;;;;6.93;3.83;;;;;;;5.99;44.46;95183.13;5021692;28;20038;-77
2021/11/11 04:02:45;;;;;;;7.00;4.57;;;;;;;5.91;44.57;95166.97;5019692;28;20064;-74
2021/11/11 04:05:10;;;;;;;5.88;4.28;;;;;;;5.94;44.42;95169.88;5011612;28;20061;-74
2021/11/11 04:07:43;;;;;;;9.38;4.35;;;;;;;6.00;44.46;95170.72;5023529;28;20517;-78
2021/11/11 04:10:12;;;;;;;7.47;4.03;;;;;;;6.02;44.44;95177.34;5022215;28;20025;-77
2021/11/11 04:12:37;;;;;;;5.28;3.72;;;;;;;6.03;44.28;95175.50;5014732;28;20464;-77
2021/11/11 04:15:04;;;;;;;5.82;4.18;;;;;;;5.66;44.42;95125.28;5018133;28;20057;-76
2021/11/11 04:17:29;;;;;;;6.00;3.72;;;;;;;5.99;44.64;95180.50;5024163;28;20045;-74
2021/11/11 04:19:54;;;;;;;7.43;4.45;;;;;;;5.90;44.53;95160.06;5010924;28;20442;-76
2021/11/11 04:22:20;;;;;;;7.07;3.67;;;;;;;5.89;44.16;95154.00;5016572;28;20085;-75
2021/11/11 04:24:47;;;;;;;7.05;3.88;;;;;;;6.05;44.18;95169.97;5019050;28;20371;-76
2021/11/11 04:28:17;;;;;;;7.10;4.13;;;;;;;6.00;44.22;95170.72;5024568;28;20048;-77
2021/11/11 04:32:34;;;;;;;12.23;6.80;;;;;;;5.85;44.37;95168.75;5023122;28;20037;-74
2021/11/11 04:35:00;;;;;;;15.15;7.40;;;;;;;5.78;44.59;95154.94;5026065;28;20049;-76
2021/11/11 04:37:40;;;;;;;15.23;8.05;;;;;;;5.70;44.51;95136.13;5015942;28;20048;-77
2021/11/11 05:01:44;;;;;;;7.90;4.32;;;;;;;5.67;44.88;95150.63;5017695;28;20045;-77
2021/11/11 05:04:10;;;;;;;6.15;3.88;;;;;;;5.72;45.14;95161.25;5016831;28;20089;-77
2021/11/11 05:06:35;;;;;;;5.68;3.72;;;;;;;5.49;44.91;95124.56;5015846;28;20093;-77
2021/11/11 05:09:01;;;;;;;10.45;5.88;;;;;;;5.73;44.94;95154.91;5023596;28;20033;-77
2021/11/11 05:11:26;;;;;;;5.95;4.18;;;;;;;5.73;45.02;95146.19;5016393;28;20044;-77
2021/11/11 05:13:53;;;;;;;6.07;3.40;;;;;;;5.72;44.99;95150.69;5022587;28;20049;-78
2021/11/11 05:16:18;;;;;;;6.15;4.25;;;;;;;5.65;44.73;95133.44;5015816;28;20241;-77
2021/11/11 05:18:44;;;;;;;4.80;4.22;;;;;;;5.81;44.90;95161.59;5016688;28;20059;-77
2021/11/11 05:21:09;;;;;;;4.85;3.90;;;;;;;5.81;44.94;95156.31;5017700;28;20037;-77
2021/11/11 05:23:35;;;;;;;7.03;4.13;;;;;;;5.73;45.12;95152.25;5021503;28;20377;-76
2021/11/11 05:26:00;;;;;;;5.82;3.90;;;;;;;5.83;44.98;95146.28;5021440;28;20048;-77
2021/11/11 05:28:26;;;;;;;7.57;4.38;;;;;;;5.80;44.84;95136.22;5018981;28;20117;-76
2021/11/11 05:30:51;;;;;;;6.03;4.50;;;;;;;5.62;45.12;95123.41;5018465;28;20537;-75
2021/11/11 05:33:17;;;;;;;6.43;4.68;;;;;;;5.73;45.57;95152.25;5017180;28;20057;-76
2021/11/11 05:35:43;;;;;;;8.73;4.72;;;;;;;6.00;44.86;95153.03;5009468;28;20436;-76
2021/11/11 05:38:10;;;;;;;6.70;4.70;;;;;;;5.92;44.53;95129.72;5011688;28;20049;-73
2021/11/11 05:40:35;;;;;;;7.88;5.82;;;;;;;6.00;44.59;95150.41;5007605;28;20455;-76
2021/11/11 05:43:00;;;;;;;12.25;7.35;;;;;;;6.02;44.56;95154.66;5020774;28;20030;-78
2021/11/11 05:45:26;;;;;;;16.75;8.02;;;;;;;5.88;45.04;95157.69;5013601;28;20030;-77
2021/11/11 05:47:52;;;;;;;10.13;6.90;;;;;;;5.80;45.39;95147.59;5009772;28;20064;-77
2021/11/11 05:50:18;;;;;;;14.50;8.05;;;;;;;5.58;45.81;95138.91;5020170;28;20037;-76
2021/11/11 05:52:44;;;;;;;14.93;7.93;;;;;;;5.81;45.79;95165.03;5011202;28;20263;-78
2021/11/11 05:55:10;;;;;;;13.88;8.00;;;;;;;6.01;45.07;95159.13;5019632;28;20499;-77
2021/11/11 05:57:36;;;;;;;13.60;9.10;;;;;;;5.98;45.26;95164.88;5010281;28;20022;-77
2021/11/11 06:00:05;;;;;;;15.57;9.27;;;;;;;5.92;45.45;95165.91;5010717;28;20606;-78
2021/11/11 06:02:30;;;;;;;13.88;7.78;;;;;;;6.16;44.94;95163.78;5019707;28;20049;-76
2021/11/11 06:04:56;;;;;;;15.63;9.50;;;;;;;5.94;45.02;95132.91;5012973;28;20061;-78
2021/11/11 06:07:21;;;;;;;16.00;8.82;;;;;;;6.17;44.81;95165.34;5022371;28;20053;-76
2021/11/11 06:09:53;;;;;;;14.95;9.65;;;;;;;6.14;44.88;95152.63;5009743;28;20029;-74
2021/11/11 06:12:18;;;;;;;16.27;9.40;;;;;;;5.97;45.14;95121.84;5027150;28;20060;-77
2021/11/11 06:14:44;;;;;;;13.68;9.18;;;;;;;6.05;45.38;95148.84;5022945;28;20045;-76
2021/11/11 06:17:09;;;;;;;16.08;9.10;;;;;;;6.25;45.02;95170.97;5012679;28;20610;-78
2021/11/11 06:19:36;;;;;;;16.52;8.82;;;;;;;6.22;44.95;95170.66;5017146;28;20040;-76
2021/11/11 06:22:03;;;;;;;13.73;9.35;;;;;;;6.11;45.28;95155.78;5019453;28;20085;-78
2021/11/11 06:24:33;;;;;;;13.93;8.50;;;;;;;6.26;45.08;95177.06;5019283;28;20021;-76
2021/11/11 06:26:58;;;;;;;18.02;9.20;;;;;;;6.29;45.10;95172.06;5023200;28;20053;-74
2021/11/11 06:29:24;;;;;;;24.40;10.77;;;;;;;6.10;45.27;95175.31;5013827;28;20038;-77
2021/11/11 06:31:50;;;;;;;17.30;10.10;;;;;;;6.11;45.35;95176.91;5017365;28;20034;-77
2021/11/11 06:34:15;;;;;;;19.88;9.75;;;;;;;6.19;45.41;95171.97;5015677;28;20142;-77
2021/11/11 06:36:41;;;;;;;17.55;10.75;;;;;;;6.21;44.85;95169.09;5017153;28;20044;-77
2021/11/11 06:39:07;;;;;;;11.18;9.32;;;;;;;6.22;45.04;95179.38;5018771;28;20042;-73
2021/11/11 06:41:33;;;;;;;12.25;9.00;;;;;;;6.24;44.89;95163.28;5017939;28;20030;-77
2021/11/11 06:43:58;;;;;;;13.30;8.77;;;;;;;6.16;45.47;95171.69;5013104;28;20044;-74
2021/11/11 06:46:24;;;;;;;15.10;9.98;;;;;;;6.20;45.46;95172.78;5014323;28;20099;-77
2021/11/11 06:48:50;;;;;;;18.30;11.77;;;;;;;6.17;45.40;95170.63;5012233;28;20022;-73
2021/11/11 06:51:15;;;;;;;16.50;9.95;;;;;;;5.96;45.71;95167.81;5018414;28;20815;-76
2021/11/11 06:53:41;;;;;;;20.23;11.50;;;;;;;6.03;46.11;95162.28;5021240;28;20476;-77
2021/11/11 06:56:07;;;;;;;17.08;9.05;;;;;;;6.13;45.35;95172.16;5016114;28;20046;-77
2021/11/11 06:58:32;;;;;;;19.00;11.35;;;;;;;5.86;45.77;95141.31;5014509;28;20627;-74
2021/11/11 07:01:00;;;;;;;21.30;11.07;;;;;;;5.81;45.59;95143.91;5021077;28;20040;-76
2021/11/11 07:03:27;;;;;;;15.93;9.32;;;;;;;5.86;45.96;95157.16;5020727;28;20088;-76
2021/11/11 07:05:52;;;;;;;19.83;10.60;;;;;;;5.99;45.67;95164.66;5019222;28;20559;-79
2021/11/11 07:08:18;;;;;;;20.92;11.10;;;;;;;5.90;45.71;95142.41;5017559;28;20622;-76
2021/11/11 07:10:46;;;;;;;14.60;10.20;;;;;;;5.97;45.83;95158.81;5019888;28;20440;-76
2021/11/11 07:13:12;;;;;;;13.73;9.27;;;;;;;6.02;45.18;95150.94;5014700;28;20562;-75
2021/11/11 07:15:40;;;;;;;12.95;9.25;;;;;;;6.01;45.40;95122.16;5011602;28;20901;-75
2021/11/11 07:18:08;;;;;;;18.27;8.80;;;;;;;6.25;45.04;95122.63;5015064;28;20500;-75
2021/11/11 07:20:34;;;;;;;16.70;9.93;;;;;;;6.23;44.66;95130.78;5020348;28;20349;-78
2021/11/11 07:23:04;;;;;;;15.23;9.93;;;;;;;5.77;45.31;95137.53;5018627;28;20514;-77
2021/11/11 07:25:31;;;;;;;14.10;8.52;;;;;;;6.02;45.21;95135.09;5018267;28;20069;-78
2021/11/11 07:27:57;;;;;;;10.77;8.85;;;;;;;6.26;44.89;95130.28;5020915;28;20025;-77
2021/11/11 07:30:23;;;;;;;12.25;8.57;;;;;;;6.35;44.43;95112.91;5016710;28;20037;-78
2021/11/11 07:32:50;;;;;;;14.13;8.82;;;;;;;6.44;44.25;95126.44;5019016;28;20562;-78
2021/11/11 07:35:16;;;;;;;16.15;9.48;;;;;;;6.42;44.62;95125.88;5014630;28;20041;-78
2021/11/11 07:37:44;;;;;;;15.02;9.02;;;;;;;6.30;43.91;95067.16;5024760;28;20037;-77
2021/11/11 07:40:13;;;;;;;16.77;9.23;;;;;;;6.71;44.17;95119.19;5016791;28;20033;-77
2021/11/11 07:42:39;;;;;;;15.60;9.93;;;;;;;6.54;43.82;95092.16;5014261;28;20024;-77
2021/11/11 07:45:07;;;;;;;16.83;9.95;;;;;;;6.57;43.94;95094.25;5018373;28;20111;-78
2021/11/11 07:47:33;;;;;;;29.35;12.88;;;;;;;6.64;44.63;95116.00;5012031;28;20603;-78
2021/11/11 07:50:00;;;;;;;33.10;14.70;;;;;;;6.65;44.50;95111.50;5023018;28;20072;-76
2021/11/11 07:52:27;;;;;;;19.20;9.90;;;;;;;6.83;44.27;95119.78;5020222;28;20052;-78
2021/11/11 07:54:56;;;;;;;15.75;8.85;;;;;;;6.80;44.37;95115.00;5007234;28;20033;-76
2021/11/11 07:57:27;;;;;;;23.95;11.25;;;;;;;6.59;44.37;95094.81;5023863;28;20222;-77
2021/11/11 07:59:53;;;;;;;15.75;9.13;;;;;;;6.44;44.58;95094.72;5035501;28;20040;-78
2021/11/11 08:02:20;;;;;;;14.15;9.23;;;;;;;6.55;44.84;95100.88;5015378;28;21324;-77
2021/11/11 08:04:46;;;;;;;17.65;9.95;;;;;;;6.51;44.77;95087.34;5021687;28;20042;-78
2021/11/11 08:07:14;;;;;;;18.20;10.00;;;;;;;6.45;44.99;95106.91;5019733;28;20033;-77
2021/11/11 08:09:40;;;;;;;17.92;9.65;;;;;;;6.62;44.99;95106.72;5008136;28;20464;-77
2021/11/11 08:12:05;;;;;;;17.77;8.63;;;;;;;6.56;44.69;95089.22;5011446;28;20099;-77
2021/11/11 08:14:31;;;;;;;15.63;10.25;;;;;;;6.77;44.54;95104.94;5017625;28;20038;-77
2021/11/11 08:16:56;;;;;;;14.32;9.32;;;;;;;6.79;44.46;95100.22;5012744;28;20038;-75
2021/11/11 08:19:22;;;;;;;19.92;11.77;;;;;;;6.51;45.14;95084.72;5015286;28;20038;-79
2021/11/11 08:21:48;;;;;;;15.40;10.13;;;;;;;6.81;44.71;95100.72;5017717;28;20567;-77
2021/11/11 08:24:13;;;;;;;13.95;8.98;;;;;;;6.99;44.16;95075.69;5010017;28;20513;-76
2021/11/11 08:26:39;;;;;;;17.40;9.98;;;;;;;7.17;43.55;95088.44;5017719;28;20042;-76
2021/11/11 08:29:05;;;;;;;18.02;9.57;;;;;;;7.04;43.77;95067.78;5014196;28;20042;-76
2021/11/11 08:31:31;;;;;;;20.83;11.35;;;;;;;7.02;43.88;95082.31;5012300;28;20045;-76
2021/11/11 08:33:56;;;;;;;13.68;9.70;;;;;;;6.46;44.69;95076.75;5022030;28;20262;-76
2021/11/11 08:36:23;;;;;;;21.25;12.25;;;;;;;6.55;44.96;95085.00;5023166;28;20487;-76
2021/11/11 08:38:48;;;;;;;14.95;9.73;;;;;;;6.71;44.60;95063.66;5015008;28;20523;-77
2021/11/11 08:41:14;;;;;;;23.55;12.75;;;;;;;6.83;44.82;95074.84;5000613;28;20128;-76
2021/11/11 08:43:39;;;;;;;14.27;9.13;;;;;;;6.35;45.16;95067.19;5012871;28;20040;-77
2021/11/11 08:46:05;;;;;;;18.00;9.88;;;;;;;6.16;45.98;95068.66;5011885;28;20026;-74
2021/11/11 08:48:33;;;;;;;20.70;11.90;;;;;;;6.19;45.60;95076.06;5019697;28;20045;-73
2021/11/11 08:50:59;;;;;;;18.00;10.95;;;;;;;6.53;45.61;95066.75;5014732;28;20060;-74
2021/11/11 08:53:24;;;;;;;17.50;10.27;;;;;;;6.81;45.27;95079.56;5015756;28;20737;-75
2021/11/11 08:55:50;;;;;;;13.40;9.38;;;;;;;6.68;45.63;95048.31;5017949;28;20109;-75
2021/11/11 08:58:15;;;;;;;15.20;9.57;;;;;;;6.72;45.55;95064.47;5009930;28;20316;-76
2021/11/11 09:00:44;;;;;;;15.35;10.25;;;;;;;6.56;45.73;95060.94;5012554;28;20034;-76
2021/11/11 09:03:12;;;;;;;18.48;10.73;;;;;;;6.40;45.99;95068.03;5011414;28;20038;-76
2021/11/11 09:05:38;;;;;;;17.77;11.30;;;;;;;6.30;46.45;95061.88;5003177;28;20041;-78
2021/11/11 09:08:06;;;;;;;19.17;12.00;;;;;;;5.80;46.94;95047.25;5007155;28;20050;-76
2021/11/11 09:10:31;;;;;;;18.75;10.98;;;;;;;5.97;47.25;95041.81;5009392;28;20089;-73
2021/11/11 09:12:58;;;;;;;17.33;10.45;;;;;;;6.49;45.85;95031.31;5012096;28;20129;-75
2021/11/11 09:15:27;;;;;;;86.03;26.40;;;;;;;6.98;45.20;95050.28;5014995;28;20111;-76
2021/11/11 09:17:57;;;;;;;29.27;15.50;;;;;;;7.02;44.79;95042.63;5011714;28;20029;-76
2021/11/11 09:20:23;;;;;;;20.60;11.68;;;;;;;7.39;44.80;95031.84;5011229;28;20033;-76
2021/11/11 09:22:50;;;;;;;17.85;10.77;;;;;;;7.43;45.14;95033.72;5006872;28;20037;-77
2021/11/11 09:25:17;;;;;;;17.67;10.80;;;;;;;7.61;44.69;95009.38;5014569;28;20067;-76
2021/11/11 09:27:44;;;;;;;16.90;11.18;;;;;;;8.16;43.48;95026.31;5014032;28;20022;-76
2021/11/11 09:30:14;;;;;;;17.40;11.43;;;;;;;7.97;43.04;95001.44;5011303;28;20052;-76
2021/11/11 09:32:40;;;;;;;16.55;10.43;;;;;;;8.00;43.07;95020.22;4997127;28;20029;-76
2021/11/11 09:35:08;;;;;;;18.35;9.90;;;;;;;7.89;43.17;94996.66;5011477;28;20520;-76
2021/11/11 09:37:35;;;;;;;19.25;10.90;;;;;;;8.21;42.95;95009.59;5009632;28;20041;-72
2021/11/11 09:40:01;;;;;;;20.25;10.82;;;;;;;8.04;42.95;95007.22;5013609;28;20476;-76
2021/11/11 09:42:27;;;;;;;15.90;11.05;;;;;;;8.01;42.49;94981.28;5018719;28;20030;-75
2021/11/11 09:44:53;;;;;;;16.25;11.68;;;;;;;7.93;43.08;94982.59;5019491;28;20038;-75
2021/11/11 09:47:18;;;;;;;17.83;11.85;;;;;;;8.04;42.81;94991.34;5012580;28;20037;-76
2021/11/11 09:49:47;;;;;;;21.27;11.55;;;;;;;8.14;42.53;94972.75;5014536;28;20053;-77
2021/11/11 09:52:12;;;;;;;20.77;12.02;;;;;;;7.94;42.31;94935.72;5022064;28;20033;-78
2021/11/11 09:59:49;;;;;;;;;;;;;;;8.04;43.04;94980.72;5015115;28;21015;-76
2021/11/11 10:02:15;;;;;;;14.50;9.98;;;;;;;7.51;43.58;94922.00;5023351;28;21943;-77
2021/11/11 10:04:40;;;;;;;21.42;11.95;;;;;;;8.09;43.58;94972.78;5024053;28;20793;-76
2021/11/11 10:07:06;;;;;;;18.08;11.98;;;;;;;8.38;42.70;94971.09;5014713;28;20025;-76
2021/11/11 10:09:31;;;;;;;16.77;11.50;;;;;;;8.32;43.05;94956.25;5013072;28;20043;-77
2021/11/11 10:12:06;;;;;;;20.33;11.88;;;;;;;8.40;42.64;94933.72;5016659;28;20029;-77
2021/11/11 10:14:37;;;;;;;18.77;10.27;;;;;;;8.88;42.72;94958.66;5032623;28;20046;-76
2021/11/11 10:17:08;;;;;;;19.48;12.55;;;;;;;9.09;43.72;94941.56;5017211;28;20034;-74
2021/11/11 10:19:37;;;;;;;21.00;12.30;;;;;;;9.01;42.20;94934.97;5020589;28;20072;-76
2021/11/11 10:22:17;;;;;;;19.70;11.18;;;;;;;9.03;41.86;94935.50;5012018;28;20026;-77
2021/11/11 10:24:55;;;;;;;17.70;11.65;;;;;;;8.97;41.52;94935.78;5019227;28;20724;-77
2021/11/11 10:30:15;;;;;;;20.10;11.70;;;;;;;8.50;42.52;94929.16;5012622;28;20041;-77
2021/11/11 10:32:43;;;;;;;;;;;;;;;8.06;43.55;94930.94;5015897;28;20523;-77
2021/11/11 10:35:13;;;;;;;31.73;15.02;;;;;;;8.61;42.74;94919.28;5020366;28;19932;-77
2021/11/11 10:38:13;;;;;;;23.55;12.77;;;;;;;8.70;42.37;94930.13;5027052;28;20535;-75
2021/11/11 10:40:49;;;;;;;19.58;11.50;;;;;;;8.47;42.82;94931.56;5015334;28;20555;-77
2021/11/11 10:43:28;;;;;;;22.13;13.93;;;;;;;8.73;42.76;94918.97;5023070;28;20033;-76
2021/11/11 10:45:55;;;;;;;25.45;14.13;;;;;;;8.71;43.01;94915.78;5020227;28;20576;-75
2021/11/11 10:48:25;;;;;;;19.38;12.10;;;;;;;8.59;42.81;94913.47;5008259;28;20427;-74
2021/11/11 10:50:56;;;;;;;21.13;12.90;;;;;;;8.25;43.32;94859.56;5020103;28;20473;-77
2021/11/11 10:53:26;;;;;;;19.33;13.00;;;;;;;8.30;43.43;94900.09;5012857;28;20030;-74
2021/11/11 10:55:58;;;;;;;21.60;13.13;;;;;;;8.42;43.21;94903.22;5018623;28;20038;-77
2021/11/11 10:58:27;;;;;;;24.40;13.27;;;;;;;8.48;42.75;94893.38;5017110;28;20321;-78
2021/11/11 11:00:55;;;;;;;18.17;12.40;;;;;;;8.93;42.97;94913.53;5019527;28;20025;-78
2021/11/11 11:03:31;;;;;;;20.20;14.27;;;;;;;9.23;42.04;94876.19;5017422;28;20065;-77
2021/11/11 11:06:27;;;;;;;22.50;12.48;;;;;;;9.45;41.33;94868.53;5017674;28;20053;-76
2021/11/11 11:08:59;;;;;;;21.08;12.77;;;;;;;9.31;41.65;94888.06;5019438;28;20045;-76
2021/11/11 11:11:34;;;;;;;23.83;13.32;;;;;;;9.54;42.08;94886.50;5021130;28;20045;-77
2021/11/11 11:14:02;;;;;;;25.60;14.13;;;;;;;9.48;42.41;94883.13;5014537;28;20050;-76
2021/11/11 11:16:37;;;;;;;25.95;14.55;;;;;;;9.59;41.91;94878.50;5019600;28;20038;-75
2021/11/11 11:19:16;;;;;;;21.38;13.55;;;;;;;8.78;42.66;94856.06;5010196;28;21159;-75
2021/11/11 11:21:52;;;;;;;23.67;13.88;;;;;;;9.06;43.10;94867.78;5022028;28;20029;-75
2021/11/11 11:24:18;;;;;;;23.35;13.93;;;;;;;9.33;42.46;94865.47;5008788;28;20564;-77
2021/11/11 11:26:51;;;;;;;19.98;13.85;;;;;;;9.68;41.81;94866.22;5011193;28;20204;-76
2021/11/11 11:31:50;;;;;;;23.83;13.07;;;;;;;10.21;40.92;94854.44;5005332;28;20402;-77
2021/11/11 11:34:22;;;;;;;516.33;217.07;;;;;;;10.40;40.10;94851.03;5020197;28;20096;-76
2021/11/11 11:36:53;;;;;;;90.13;46.70;;;;;;;10.04;40.92;94848.78;5004401;28;20476;-75
2021/11/11 11:39:56;;;;;;;25.65;15.05;;;;;;;9.80;42.49;94835.53;5017350;28;20398;-76
2021/11/11 11:42:30;;;;;;;27.13;15.07;;;;;;;9.91;41.69;94838.06;5020769;28;20128;-77
2021/11/11 11:45:10;;;;;;;23.63;15.02;;;;;;;9.93;41.42;94826.06;5015020;28;20143;-75
2021/11/11 11:47:48;;;;;;;22.65;14.35;;;;;;;9.96;41.26;94830.81;5014535;28;20734;-77
2021/11/11 11:50:25;;;;;;;25.60;14.00;;;;;;;9.90;41.43;94831.94;5013061;28;20049;-76
2021/11/11 11:52:57;;;;;;;23.88;14.25;;;;;;;9.92;41.45;94818.41;5015497;28;20040;-77
2021/11/11 12:09:29;;;;;;;22.00;13.82;;;;;;;10.84;40.11;94795.59;5018166;28;20045;-76
2021/11/11 12:14:52;;;;;;;25.20;13.80;;;;;;;11.04;39.51;94803.25;5022644;28;20968;-76
2021/11/11 12:39:32;;;;;;;25.98;13.20;;;;;;;9.77;40.24;94774.19;5011886;28;20312;-77
2021/11/11 12:42:02;;;;;;;17.70;12.48;;;;;;;10.25;39.84;94772.22;5016270;28;20132;-77
2021/11/11 12:44:29;;;;;;;29.92;15.25;;;;;;;10.66;39.20;94764.50;5012712;28;20069;-74
2021/11/11 12:46:54;;;;;;;23.38;13.88;;;;;;;10.45;39.06;94757.88;5009519;28;20053;-75
2021/11/11 12:49:29;;;;;;;18.85;12.23;;;;;;;10.51;39.02;94752.22;5014544;28;20053;-77